首页
METAR-TAF:

METAR-TAF

机场 :

Alice, 得克萨斯州, 美国

纬度: 27-44-28N, 经度: 098-01-37W, 海拔: 54米

当前天气观测

该预报发布于1小时和8分钟前的15:53 UTC
风速3节,风向多变
温度 31°C
湿度 66%
气压 1014 hPa
能見度: 16.1公里
少量云层高于2800英尺
散云层高于3700英尺

METAR: KALI 241553Z AUTO VRB03KT 10SM FEW028 SCT037 31/24 A2995 RMK AO2 SLP140 T03110244

时间: 12:01 (17:01 UTC)

预报

该预报发布于5小时和41分钟前的11:20 UTC
预报有效从24日的 12点(UTC)到 25日的 12点(UTC)
风速3节,风向北转东北
能見度: 4.8公里
少量云层高于1400英尺
轻雾
短暂存在
从 24日的 12点(UTC)到 24日的 13点(UTC)
能見度: 1.2公里
轻雾
从 24日的 1400点(UTC)
风速3节,风向多变
能見度: 10公里
少量云层高于2200英尺
散云层高于3500英尺
附近有阵雨
短暂存在
从 24日的 14点(UTC)到 24日的 18点(UTC)
能見度: 6.4公里
多云层高于2200英尺
小阵雨, 轻雾
从 24日的 1800点(UTC)
风速8节,风向东转东南
能見度: 10公里
散云层高于4000英尺
附近有阵雨
从 25日的 0000点(UTC)
风速8节,风向东转东南
能見度: 10公里
少量云层高于3000英尺
从 25日的 0800点(UTC)
风速3节,风向多变
能見度: 4.8公里
散云层高于15000英尺
轻雾,

TAF: KALI 241120Z 2412/2512 02003KT 3SM BR FEW014 TEMPO 2412/2413 3/4SM BR FM241400 VRB03KT P6SM VCSH FEW022 SCT035 TEMPO 2414/2418 4SM -SHRA BR BKN022 FM241800 11008KT P6SM VCSH SCT040 FM250000 12008KT P6SM FEW030 FM250800 VRB03KT 3SM BR SCT150

超过4000个机场的气象观测和天气预报(METAR&TAF报告)。

可查询的气象台以黄色和红色小点在地图上表示。

将鼠标移到小点上方,可查看气象台名称。

然后点击查看天气观测和预报。

如需切换地图:点击带黑十字的绿色按钮放大地图;点击带横线的绿色按钮缩小地图;或者点击绿色箭头查看邻近地区的地图。


METAR-TAF: